Time;durP1;ratioP1;P1;durP2;ratioP2;P2;SDS_P1;SDS_P2;PMS_P1;PMS_P2;Temp;Humidity;BMP_temperature;BMP_pressure;BME280_temperature;BME280_humidity;BME280_pressure;Samples;Min_cycle;Max_cycle;Signal;HPM_P1;HPM_P2
2023/10/04 00:00:20;;;;;;;3.63;1.65;;;;;;;15.52;41.70;102110.22;5040207;28;20037;-83
2023/10/04 00:02:53;;;;;;;3.33;1.55;;;;;;;15.50;42.01;102109.50;5038080;28;20111;-84
2023/10/04 00:05:24;;;;;;;3.97;1.38;;;;;;;15.49;41.45;102105.88;5035933;28;20053;-85
2023/10/04 00:07:55;;;;;;;4.40;1.50;;;;;;;15.47;41.83;102107.00;5036854;28;20481;-81
2023/10/04 00:10:24;;;;;;;3.65;1.40;;;;;;;15.46;41.68;102113.53;5052996;28;20045;-83
2023/10/04 00:12:53;;;;;;;3.55;1.35;;;;;;;15.47;42.14;102113.41;5035632;28;20045;-82
2023/10/04 00:15:27;;;;;;;4.00;1.60;;;;;;;15.47;42.17;102113.41;5033836;28;20081;-83
2023/10/04 00:17:55;;;;;;;3.65;1.40;;;;;;;15.45;42.29;102123.69;5037143;28;20052;-83
2023/10/04 00:20:31;;;;;;;3.22;1.55;;;;;;;15.46;41.93;102127.34;5038203;28;20052;-84
2023/10/04 00:22:59;;;;;;;3.85;1.70;;;;;;;15.44;41.82;102126.59;5055800;28;20049;-83
2023/10/04 00:25:29;;;;;;;3.55;1.45;;;;;;;15.43;41.93;102131.22;5037037;28;20055;-83
2023/10/04 00:27:57;;;;;;;4.80;1.50;;;;;;;15.43;42.10;102124.84;5037257;28;20538;-82
2023/10/04 00:30:29;;;;;;;3.05;1.35;;;;;;;15.46;42.06;102124.56;5038556;28;20083;-84
2023/10/04 00:33:02;;;;;;;3.60;1.40;;;;;;;15.43;41.80;102133.09;5037561;28;20045;-82
2023/10/04 00:35:30;;;;;;;3.42;1.80;;;;;;;15.39;42.20;102131.66;5039138;28;20091;-83
2023/10/04 00:38:00;;;;;;;3.17;1.42;;;;;;;15.41;42.18;102136.03;5041405;28;20040;-84
2023/10/04 00:40:29;;;;;;;3.05;1.17;;;;;;;15.41;42.36;102138.78;5039146;28;20080;-84
2023/10/04 00:43:13;;;;;;;2.92;1.30;;;;;;;15.41;41.83;102141.53;5056025;28;20037;-82
2023/10/04 00:45:45;;;;;;;2.20;1.20;;;;;;;15.40;42.43;102144.44;5045661;28;20055;-85
2023/10/04 00:48:15;;;;;;;4.13;1.30;;;;;;;15.37;42.46;102141.94;5062097;28;20042;-81
2023/10/04 00:50:44;;;;;;;3.13;1.20;;;;;;;15.38;42.35;102140.94;5045486;28;20078;-83
2023/10/04 00:53:15;;;;;;;4.50;1.50;;;;;;;15.39;41.94;102146.31;5039782;28;20824;-82
2023/10/04 00:55:45;;;;;;;3.50;1.55;;;;;;;15.38;42.40;102141.81;5038190;28;20040;-84
2023/10/04 00:58:17;;;;;;;4.88;1.88;;;;;;;15.37;41.75;102142.81;5038041;28;20047;-84
2023/10/04 01:00:48;;;;;;;3.30;1.40;;;;;;;15.33;42.00;102148.72;5035782;28;20048;-81
2023/10/04 01:03:20;;;;;;;3.58;1.55;;;;;;;15.27;41.88;102141.81;5047681;28;20049;-83
2023/10/04 01:05:51;;;;;;;5.20;1.42;;;;;;;15.27;42.27;102141.81;5070686;28;20074;-81
2023/10/04 01:08:22;;;;;;;5.05;1.55;;;;;;;15.29;42.25;102155.50;5068921;28;20033;-82
2023/10/04 01:10:51;;;;;;;3.00;1.35;;;;;;;15.26;42.50;102150.25;5041435;28;20076;-84
2023/10/04 01:13:21;;;;;;;4.68;1.50;;;;;;;15.23;42.72;102151.38;5035754;28;20045;-82
2023/10/04 01:15:55;;;;;;;3.65;1.42;;;;;;;15.20;42.31;102146.13;5036356;28;20053;-85
2023/10/04 01:18:24;;;;;;;3.45;1.40;;;;;;;15.19;42.49;102152.66;5034059;28;20049;-85
2023/10/04 01:20:53;;;;;;;3.08;1.17;;;;;;;15.17;42.31;102146.41;5053163;28;20049;-84
2023/10/04 01:23:23;;;;;;;3.53;1.30;;;;;;;15.16;42.59;102146.53;5036086;28;20136;-84
2023/10/04 01:25:51;;;;;;;2.97;1.30;;;;;;;15.13;42.79;102147.69;5035842;28;20048;-84
2023/10/04 01:28:26;;;;;;;3.83;1.60;;;;;;;15.14;42.46;102152.19;5032926;28;20079;-85
2023/10/04 01:30:56;;;;;;;3.50;1.52;;;;;;;15.13;42.90;102156.81;5052016;28;20156;-85
2023/10/04 01:33:24;;;;;;;2.72;1.30;;;;;;;15.10;42.78;102151.56;5051633;28;20045;-84
2023/10/04 01:35:53;;;;;;;4.90;1.58;;;;;;;15.10;42.48;102159.84;5035973;28;20129;-83
2023/10/04 01:38:25;;;;;;;4.28;1.52;;;;;;;15.09;42.72;102158.09;5035954;28;20108;-85
2023/10/04 01:40:55;;;;;;;2.78;1.40;;;;;;;15.08;42.79;102163.75;5038275;28;20450;-84
2023/10/04 01:43:25;;;;;;;4.18;1.60;;;;;;;15.07;43.13;102150.97;5036618;28;20068;-84
2023/10/04 01:45:57;;;;;;;3.45;1.20;;;;;;;15.09;42.59;102160.84;5034647;28;20076;-84
2023/10/04 01:48:28;;;;;;;4.70;1.63;;;;;;;15.04;42.83;102163.13;5037101;28;20658;-84
2023/10/04 01:50:56;;;;;;;4.20;1.60;;;;;;;15.07;42.68;102162.00;5035827;28;20041;-83
2023/10/04 01:53:26;;;;;;;3.30;1.50;;;;;;;15.08;42.73;102158.25;5034968;28;20041;-84
2023/10/04 01:55:55;;;;;;;3.53;1.40;;;;;;;15.06;43.42;102163.88;5037449;28;20053;-85
2023/10/04 01:58:23;;;;;;;4.47;1.40;;;;;;;15.06;43.28;102154.72;5054579;28;20594;-85
2023/10/04 02:00:53;;;;;;;3.72;1.55;;;;;;;15.05;43.34;102162.13;5040278;28;20049;-86
2023/10/04 02:03:21;;;;;;;4.45;1.30;;;;;;;15.06;43.06;102154.72;5037833;28;20037;-84
2023/10/04 02:05:56;;;;;;;3.67;1.30;;;;;;;15.04;43.14;102160.38;5027378;28;20057;-85
2023/10/04 02:08:27;;;;;;;3.28;1.45;;;;;;;15.05;43.09;102164.00;5033548;28;20053;-84
2023/10/04 02:10:57;;;;;;;3.50;1.38;;;;;;;15.03;43.73;102166.88;5042203;28;20052;-84
2023/10/04 02:13:27;;;;;;;3.15;1.40;;;;;;;15.03;43.57;102166.00;5052839;28;20399;-84
2023/10/04 02:15:58;;;;;;;5.72;1.50;;;;;;;15.02;43.60;102162.38;5036673;28;20052;-85
2023/10/04 02:18:27;;;;;;;3.72;1.40;;;;;;;15.02;43.03;102162.38;5054159;28;20068;-85
2023/10/04 02:20:55;;;;;;;4.43;1.40;;;;;;;15.02;43.43;102164.25;5039322;28;20825;-85
2023/10/04 02:23:23;;;;;;;2.88;1.10;;;;;;;15.00;43.37;102161.66;5038112;28;20040;-85
2023/10/04 02:25:53;;;;;;;4.13;1.50;;;;;;;15.03;43.63;102163.25;5038943;28;20038;-85
2023/10/04 02:28:22;;;;;;;6.60;1.38;;;;;;;15.00;43.63;102161.66;5051839;28;20528;-85
2023/10/04 02:30:54;;;;;;;3.92;1.30;;;;;;;15.01;43.72;102162.53;5053370;28;20045;-86
2023/10/04 02:33:32;;;;;;;3.00;1.20;;;;;;;15.02;43.80;102169.78;5038054;28;20064;-85
2023/10/04 02:36:02;;;;;;;3.55;1.33;;;;;;;15.00;43.68;102164.41;5040478;28;20041;-85
2023/10/04 02:38:33;;;;;;;4.28;1.48;;;;;;;14.99;43.64;102164.53;5037930;28;20038;-85
2023/10/04 02:41:06;;;;;;;5.38;1.20;;;;;;;15.01;43.65;102160.63;5036499;28;20087;-85
2023/10/04 02:43:35;;;;;;;3.75;1.30;;;;;;;14.97;43.81;102166.56;5040383;28;20053;-85
2023/10/04 02:46:03;;;;;;;4.60;1.35;;;;;;;14.98;43.77;102168.31;5039992;28;20044;-86
2023/10/04 02:48:32;;;;;;;4.80;1.25;;;;;;;14.97;43.97;102161.91;5044579;28;20072;-85
2023/10/04 02:51:01;;;;;;;4.82;1.80;;;;;;;14.98;43.90;102162.78;5062544;28;20037;-85
2023/10/04 02:53:30;;;;;;;5.40;1.42;;;;;;;14.95;43.64;102155.66;5053446;28;20037;-86
2023/10/04 02:55:58;;;;;;;4.72;1.30;;;;;;;14.96;43.45;102160.16;5043125;28;20073;-86
2023/10/04 02:58:44;;;;;;;3.00;1.50;;;;;;;14.98;43.77;102160.03;5020456;28;20046;-85
2023/10/04 03:01:22;;;;;;;2.17;1.30;;;;;;;14.96;43.95;102154.66;5029616;28;20076;-85
2023/10/04 03:03:52;;;;;;;4.93;1.55;;;;;;;14.93;43.78;102156.81;5039496;28;20064;-84
2023/10/04 03:06:23;;;;;;;3.80;1.25;;;;;;;14.93;44.04;102149.38;5041717;28;20134;-85
2023/10/04 03:08:55;;;;;;;3.03;1.38;;;;;;;14.94;43.81;102159.41;5059537;28;20124;-85
2023/10/04 03:11:27;;;;;;;3.17;1.30;;;;;;;14.93;44.09;102154.06;5039909;28;20049;-85
2023/10/04 03:13:59;;;;;;;3.17;1.10;;;;;;;14.95;44.03;102158.41;5042103;28;20045;-86
2023/10/04 03:16:27;;;;;;;5.13;1.33;;;;;;;14.91;44.17;102158.81;5040612;28;20046;-85
2023/10/04 03:18:55;;;;;;;4.30;1.40;;;;;;;14.95;44.13;102157.53;5044582;28;20040;-85
2023/10/04 03:21:28;;;;;;;4.70;1.40;;;;;;;14.93;43.80;102151.28;5040873;28;20394;-84
2023/10/04 03:23:56;;;;;;;;;;;;;;;14.66;44.59;102160.03;5043956;28;20135;-85
2023/10/04 03:26:24;;;;;;;6.55;1.35;;;;;;;14.87;44.12;102155.44;5043316;28;19929;-85
2023/10/04 03:28:58;;;;;;;4.43;1.38;;;;;;;14.92;43.79;102155.06;5044562;28;20042;-86
2023/10/04 03:31:30;;;;;;;4.07;1.23;;;;;;;14.89;43.79;102152.53;5042156;28;20107;-85
2023/10/04 03:34:00;;;;;;;5.93;1.40;;;;;;;14.91;44.09;102156.94;5042079;28;20501;-86
2023/10/04 03:36:34;;;;;;;2.60;0.95;;;;;;;14.89;44.01;102158.06;5041532;28;20130;-85
2023/10/04 03:39:09;;;;;;;4.72;1.45;;;;;;;14.90;43.67;102160.69;5045024;28;21153;-85
2023/10/04 03:41:42;;;;;;;4.47;1.33;;;;;;;14.88;44.08;102161.81;5045978;28;20128;-86
2023/10/04 03:44:13;;;;;;;4.90;1.80;;;;;;;14.90;43.98;102166.22;5040306;28;20119;-85
2023/10/04 03:46:43;;;;;;;3.65;1.48;;;;;;;14.87;44.32;102177.47;5041389;28;20051;-85
2023/10/04 03:49:12;;;;;;;4.70;1.45;;;;;;;14.88;44.39;102182.00;5059399;28;20064;-86
2023/10/04 03:51:41;;;;;;;2.85;1.40;;;;;;;14.89;44.12;102183.75;5042064;28;20037;-86
2023/10/04 03:54:12;;;;;;;3.15;1.40;;;;;;;14.88;44.36;102190.25;5060778;28;20045;-86
2023/10/04 03:56:43;;;;;;;3.42;1.40;;;;;;;14.86;44.34;102186.75;5043862;28;20071;-85
2023/10/04 03:59:12;;;;;;;4.18;1.63;;;;;;;14.89;44.04;102177.34;5050673;28;20498;-87
2023/10/04 04:01:40;;;;;;;3.85;1.50;;;;;;;14.89;44.41;102186.50;5058115;28;20080;-87
2023/10/04 04:04:14;;;;;;;4.40;1.42;;;;;;;14.90;44.29;102185.50;5043501;28;20049;-86
2023/10/04 04:06:43;;;;;;;2.85;1.20;;;;;;;14.89;44.50;102167.22;5058213;28;20048;-86
2023/10/04 04:09:12;;;;;;;3.60;1.65;;;;;;;14.91;44.45;102167.09;5042911;28;20069;-86
2023/10/04 04:11:41;;;;;;;3.47;1.40;;;;;;;14.89;44.35;102164.44;5058903;28;20060;-86
2023/10/04 04:14:10;;;;;;;4.38;1.52;;;;;;;14.90;44.33;102170.84;5041928;28;20260;-86
2023/10/04 04:16:39;;;;;;;4.43;1.33;;;;;;;14.92;44.36;102179.88;5043510;28;20072;-86
2023/10/04 04:19:11;;;;;;;;;;;;;;;14.63;45.07;102176.81;5060287;28;20049;-87
2023/10/04 04:21:40;;;;;;;4.28;1.45;;;;;;;14.85;44.39;102176.72;5042788;28;20376;-86
2023/10/04 04:24:09;;;;;;;4.13;1.67;;;;;;;14.88;44.14;102192.13;5052070;28;20049;-87
2023/10/04 04:26:39;;;;;;;4.38;1.27;;;;;;;14.87;44.14;102205.03;5042784;28;20052;-86
2023/10/04 04:29:09;;;;;;;3.60;1.52;;;;;;;14.88;44.02;102197.66;5040532;28;20082;-86
2023/10/04 04:31:40;;;;;;;4.03;1.52;;;;;;;14.88;44.30;102205.91;5044101;28;20045;-86
2023/10/04 04:34:13;;;;;;;3.40;1.27;;;;;;;14.84;44.51;102202.56;5057664;28;20049;-86
2023/10/04 04:36:42;;;;;;;4.75;1.45;;;;;;;14.82;44.65;102199.06;5056208;28;20049;-85
2023/10/04 04:39:16;;;;;;;3.90;1.48;;;;;;;14.85;44.47;102195.19;5053276;28;20068;-87
2023/10/04 04:41:46;;;;;;;2.97;1.30;;;;;;;14.83;44.29;102209.09;5044040;28;20046;-87
2023/10/04 04:44:20;;;;;;;2.92;1.30;;;;;;;14.84;44.23;102198.94;5042729;28;20045;-87
2023/10/04 04:46:51;;;;;;;4.05;1.33;;;;;;;14.82;44.30;102201.81;5060005;28;20160;-85
2023/10/04 04:49:19;;;;;;;6.28;2.00;;;;;;;14.78;44.22;102192.03;5045816;28;20112;-86
2023/10/04 04:51:48;;;;;;;3.88;1.40;;;;;;;14.78;44.13;102197.56;5047300;28;20053;-86
2023/10/04 04:54:19;;;;;;;4.18;1.33;;;;;;;14.73;44.45;102197.94;5050140;28;20045;-85
2023/10/04 04:56:48;;;;;;;4.15;1.80;;;;;;;14.76;44.49;102205.94;5056811;28;20041;-86
2023/10/04 04:59:21;;;;;;;3.95;1.50;;;;;;;14.74;44.18;102191.44;5058373;28;20037;-86
2023/10/04 05:01:51;;;;;;;4.75;1.65;;;;;;;14.74;44.15;102196.06;5058180;28;20063;-86
2023/10/04 05:04:22;;;;;;;3.63;1.40;;;;;;;14.70;44.81;102191.81;5066167;28;20045;-87
2023/10/04 05:06:53;;;;;;;3.92;1.60;;;;;;;14.72;44.23;102193.44;5058306;28;20049;-86
2023/10/04 05:09:21;;;;;;;5.20;1.55;;;;;;;14.70;44.59;102191.81;5044062;28;20053;-87
2023/10/04 05:11:49;;;;;;;4.32;1.83;;;;;;;14.69;44.16;102190.06;5043683;28;20125;-86
2023/10/04 05:14:20;;;;;;;4.75;1.50;;;;;;;14.68;44.60;102193.84;5039617;28;20053;-86
2023/10/04 05:16:49;;;;;;;4.43;1.42;;;;;;;14.66;44.81;102190.34;5028290;28;20060;-86
2023/10/04 05:19:18;;;;;;;3.70;1.30;;;;;;;14.66;44.46;102193.09;5043353;28;20060;-85
2023/10/04 05:21:46;;;;;;;5.57;1.60;;;;;;;14.64;44.30;102184.94;5040721;28;20064;-87
2023/10/04 05:24:14;;;;;;;2.80;1.42;;;;;;;14.65;44.62;102189.47;5025679;28;20417;-87
2023/10/04 05:26:42;;;;;;;5.22;1.70;;;;;;;14.63;44.47;102188.69;5024432;28;20444;-86
2023/10/04 05:29:12;;;;;;;3.55;1.40;;;;;;;14.62;44.28;102195.22;5024283;28;20053;-87
2023/10/04 05:31:42;;;;;;;3.78;1.48;;;;;;;14.62;44.65;102189.69;5023230;28;20057;-86
2023/10/04 05:34:11;;;;;;;4.53;1.50;;;;;;;14.64;44.59;102200.59;5022083;28;20055;-86
2023/10/04 05:36:40;;;;;;;4.00;1.60;;;;;;;14.61;44.50;102206.34;5023926;28;20521;-87
2023/10/04 05:39:11;;;;;;;4.53;1.42;;;;;;;14.62;44.56;102205.34;5023777;28;20053;-86
2023/10/04 05:41:39;;;;;;;3.75;1.27;;;;;;;14.61;44.69;102210.00;5023418;28;20093;-86
2023/10/04 05:44:43;;;;;;;4.22;1.55;;;;;;;14.58;45.14;102210.25;5010226;28;20066;-86
2023/10/04 05:47:52;;;;;;;4.43;1.30;;;;;;;14.53;44.93;102212.50;5003301;28;20059;-86
2023/10/04 05:50:24;;;;;;;4.40;1.38;;;;;;;14.57;44.78;102214.03;5037210;28;20057;-86
2023/10/04 05:53:19;;;;;;;4.15;1.50;;;;;;;14.58;45.07;102209.38;5005137;28;20057;-86
2023/10/04 05:55:54;;;;;;;3.90;1.48;;;;;;;14.56;44.62;102214.13;5000200;28;20118;-86
2023/10/04 05:58:34;;;;;;;4.80;1.80;;;;;;;14.55;44.82;102217.91;5042902;28;20052;-86
2023/10/04 06:01:17;;;;;;;3.28;1.58;;;;;;;14.55;45.02;102209.63;5010349;28;20180;-88
2023/10/04 06:03:55;;;;;;;4.20;1.40;;;;;;;14.53;44.91;102214.38;5025418;28;20453;-86
2023/10/04 06:11:00;;;;;;;3.65;1.23;;;;;;;14.54;44.83;102243.69;4934679;28;20134;-88
2023/10/04 06:13:29;;;;;;;3.53;1.50;;;;;;;14.53;45.14;102259.34;4982217;28;20061;-85
2023/10/04 06:15:59;;;;;;;3.90;1.50;;;;;;;14.54;44.63;102254.72;4982961;28;21565;-87
2023/10/04 06:18:28;;;;;;;5.40;1.60;;;;;;;14.53;44.97;102262.09;4998814;28;20081;-86
2023/10/04 06:20:59;;;;;;;5.65;1.80;;;;;;;14.53;45.12;102262.09;5012336;28;20056;-86
2023/10/04 06:23:30;;;;;;;3.80;1.50;;;;;;;14.53;45.02;102261.22;5044715;28;20058;-85
2023/10/04 06:26:02;;;;;;;3.92;1.60;;;;;;;14.57;45.05;102259.97;5031421;28;20060;-86
2023/10/04 06:28:30;;;;;;;6.47;1.60;;;;;;;14.53;45.00;102258.47;5044163;28;20061;-87
2023/10/04 06:30:58;;;;;;;5.03;1.90;;;;;;;14.54;45.22;102257.47;5026432;28;20045;-86
2023/10/04 06:33:26;;;;;;;4.47;1.50;;;;;;;14.55;45.00;102254.59;5027440;28;20742;-86
2023/10/04 06:35:55;;;;;;;4.50;1.92;;;;;;;14.58;45.31;102267.25;5027761;28;20049;-86
2023/10/04 06:38:23;;;;;;;4.95;2.08;;;;;;;14.57;45.83;102268.25;5031677;28;20049;-88
2023/10/04 06:40:52;;;;;;;5.55;1.83;;;;;;;14.60;45.88;102273.50;5034910;28;20468;-88
2023/10/04 06:43:21;;;;;;;5.75;1.98;;;;;;;14.67;45.91;102286.66;5032554;28;20049;-86
2023/10/04 06:45:50;;;;;;;4.00;1.63;;;;;;;14.69;46.26;102281.88;5048653;28;20041;-88
2023/10/04 06:48:18;;;;;;;4.40;1.80;;;;;;;14.78;46.56;102285.75;5030469;28;20056;-88
2023/10/04 06:50:49;;;;;;;5.00;1.80;;;;;;;14.88;46.83;102294.13;5030908;28;20050;-87
2023/10/04 06:53:18;;;;;;;4.45;1.55;;;;;;;14.97;46.72;102296.13;5033493;28;20057;-87
2023/10/04 06:55:46;;;;;;;4.80;1.50;;;;;;;15.10;46.93;102302.34;5030856;28;20041;-87
2023/10/04 06:58:15;;;;;;;5.72;1.60;;;;;;;15.22;46.89;102298.56;5028973;28;20547;-84
2023/10/04 07:00:45;;;;;;;5.00;1.50;;;;;;;15.36;46.50;102298.28;5033063;28;20140;-86
2023/10/04 07:03:15;;;;;;;4.45;1.45;;;;;;;15.47;46.43;102298.25;5042418;28;20084;-87
2023/10/04 07:05:44;;;;;;;3.67;1.50;;;;;;;15.59;46.22;102304.59;5032913;28;20061;-84
2023/10/04 07:08:15;;;;;;;5.65;2.00;;;;;;;15.72;45.54;102301.66;5035906;28;20057;-88
2023/10/04 07:10:44;;;;;;;4.10;1.53;;;;;;;15.83;45.54;102307.13;5032473;28;20045;-85
2023/10/04 07:13:13;;;;;;;6.85;1.85;;;;;;;15.95;45.28;102310.69;5040981;28;20053;-84
2023/10/04 07:15:41;;;;;;;5.50;1.92;;;;;;;16.02;44.83;102307.25;5035319;28;20049;-87
2023/10/04 07:18:13;;;;;;;5.80;1.50;;;;;;;16.11;44.12;102311.09;5037776;28;20052;-85
2023/10/04 07:20:42;;;;;;;6.93;1.70;;;;;;;16.15;44.12;102312.59;5031846;28;20053;-85
2023/10/04 07:23:13;;;;;;;6.05;1.65;;;;;;;16.21;44.05;102318.47;5037070;28;20821;-85
2023/10/04 07:25:49;;;;;;;4.32;1.45;;;;;;;16.22;43.81;102320.22;5035664;28;20068;-85
2023/10/04 07:28:17;;;;;;;4.40;1.58;;;;;;;16.29;43.99;102325.19;5036419;28;20053;-84
2023/10/04 07:30:45;;;;;;;5.50;1.63;;;;;;;16.31;43.92;102326.81;5031519;28;20049;-85
2023/10/04 07:33:15;;;;;;;5.00;1.30;;;;;;;16.36;44.06;102318.13;5035021;28;20045;-83
2023/10/04 07:35:53;;;;;;;4.22;1.65;;;;;;;16.37;43.58;102317.09;5037865;28;20559;-86
2023/10/04 07:38:22;;;;;;;4.32;1.60;;;;;;;16.40;43.26;102317.72;5042196;28;20585;-84
2023/10/04 07:40:50;;;;;;;4.03;1.40;;;;;;;;;;5044437;28;20112;-83
2023/10/04 07:43:18;;;;;;;4.43;2.10;;;;;;;16.42;43.25;102335.00;5063051;28;20117;-83
2023/10/04 07:45:46;;;;;;;5.72;1.63;;;;;;;16.43;42.93;102345.06;5053119;28;20057;-84
2023/10/04 07:48:17;;;;;;;5.38;1.52;;;;;;;16.43;42.71;102349.72;5036215;28;20056;-84
2023/10/04 07:50:46;;;;;;;3.95;1.60;;;;;;;16.40;42.90;102344.47;5033153;28;20636;-83
2023/10/04 07:53:14;;;;;;;3.40;1.50;;;;;;;16.39;42.41;102345.47;5035424;28;20057;-85
2023/10/04 07:55:42;;;;;;;4.40;1.50;;;;;;;16.36;42.69;102343.84;5032878;28;20519;-84
2023/10/04 07:58:12;;;;;;;4.10;1.70;;;;;;;16.34;42.50;102342.22;5037980;28;20505;-85
2023/10/04 08:00:41;;;;;;;3.45;1.52;;;;;;;16.33;42.71;102343.28;5044476;28;20101;-84
2023/10/04 08:03:09;;;;;;;4.57;1.60;;;;;;;16.31;42.47;102340.63;5059552;28;20044;-84
2023/10/04 08:05:39;;;;;;;5.20;1.52;;;;;;;16.30;42.86;102347.16;5050740;28;20050;-84
2023/10/04 08:08:07;;;;;;;4.93;1.60;;;;;;;16.26;43.09;102343.78;5034752;28;20497;-84
2023/10/04 08:10:37;;;;;;;5.25;1.70;;;;;;;16.25;42.49;102342.03;5032922;28;20046;-84
2023/10/04 08:13:06;;;;;;;4.93;1.88;;;;;;;16.25;42.91;102346.69;5033095;28;20041;-83
2023/10/04 08:15:36;;;;;;;3.67;1.70;;;;;;;16.24;42.57;102340.31;5033076;28;20174;-84
2023/10/04 08:18:05;;;;;;;4.78;1.50;;;;;;;16.23;43.01;102329.41;5045222;28;20568;-84
2023/10/04 08:20:36;;;;;;;5.35;1.85;;;;;;;16.22;42.80;102334.03;5026421;28;20045;-83
2023/10/04 08:23:06;;;;;;;5.80;1.67;;;;;;;16.21;43.03;102331.41;5047993;28;20139;-84
2023/10/04 08:25:35;;;;;;;5.13;1.85;;;;;;;16.17;42.93;102330.78;5032157;28;20800;-84
2023/10/04 08:28:06;;;;;;;3.97;1.40;;;;;;;16.19;43.23;102331.53;5031110;28;20791;-84
2023/10/04 08:30:38;;;;;;;5.18;1.70;;;;;;;16.16;43.59;102329.03;5031144;28;20117;-84
2023/10/04 08:33:07;;;;;;;;;;;;;;;15.91;44.02;102336.84;5029778;28;20053;-83
2023/10/04 08:35:36;;;;;;;4.20;1.42;;;;;;;16.13;43.88;102343.09;5031285;28;19968;-85
2023/10/04 08:38:08;;;;;;;5.18;1.60;;;;;;;16.22;43.22;102347.84;5032881;28;20049;-84
2023/10/04 08:40:39;;;;;;;4.53;1.50;;;;;;;16.20;43.38;102349.88;5051757;28;20073;-84
2023/10/04 08:43:08;;;;;;;5.57;1.60;;;;;;;16.22;43.16;102342.34;5032629;28;20033;-84
2023/10/04 08:45:37;;;;;;;4.68;1.90;;;;;;;16.24;43.17;102347.72;5044996;28;20144;-83
2023/10/04 08:48:07;;;;;;;5.03;1.75;;;;;;;16.27;43.00;102358.47;5031120;28;20053;-84
2023/10/04 08:50:44;;;;;;;4.55;1.67;;;;;;;16.31;43.21;102356.34;5030808;28;20056;-84
2023/10/04 08:53:18;;;;;;;5.43;1.80;;;;;;;16.31;43.41;102361.88;5032480;28;20171;-85
2023/10/04 08:55:51;;;;;;;3.65;1.75;;;;;;;16.35;43.08;102361.44;5037167;28;20864;-84
2023/10/04 08:58:20;;;;;;;4.78;1.73;;;;;;;16.36;43.58;102360.44;5032855;28;20087;-84
2023/10/04 09:00:50;;;;;;;5.05;2.00;;;;;;;16.39;43.46;102351.00;5029600;28;20106;-84
2023/10/04 09:03:22;;;;;;;6.60;1.90;;;;;;;16.43;43.32;102356.09;5050709;28;20915;-83
2023/10/04 09:05:54;;;;;;;4.22;1.65;;;;;;;16.45;43.37;102364.28;5031814;28;20049;-84
2023/10/04 09:08:26;;;;;;;4.65;1.88;;;;;;;16.51;43.56;102363.72;5028388;28;20049;-84
2023/10/04 09:10:54;;;;;;;5.28;1.70;;;;;;;16.52;43.85;102358.06;5032042;28;20147;-84
2023/10/04 09:13:23;;;;;;;5.28;2.30;;;;;;;16.57;43.71;102350.25;5030073;28;20136;-85
2023/10/04 09:15:51;;;;;;;4.82;1.88;;;;;;;16.61;43.35;102353.59;5052957;28;20095;-84
2023/10/04 09:18:26;;;;;;;5.45;2.00;;;;;;;16.69;42.88;102353.78;5028730;28;20048;-84
2023/10/04 09:20:55;;;;;;;6.57;1.70;;;;;;;16.69;43.44;102356.53;5030042;28;20059;-84
2023/10/04 09:23:27;;;;;;;5.53;1.85;;;;;;;16.76;43.15;102359.63;5032852;28;20058;-83
2023/10/04 09:25:55;;;;;;;4.32;1.63;;;;;;;16.75;43.60;102344.03;5033863;28;20114;-84
2023/10/04 09:28:39;;;;;;;4.35;1.67;;;;;;;16.82;42.79;102350.78;5031836;28;20533;-84
2023/10/04 09:31:10;;;;;;;;;;;;;;;16.55;44.13;102341.22;5032028;28;20048;-84
2023/10/04 09:33:39;;;;;;;5.65;1.67;;;;;;;16.84;43.15;102343.22;5035156;28;19929;-86
2023/10/04 09:36:10;;;;;;;5.30;1.73;;;;;;;16.92;43.01;102354.44;5033228;28;20143;-85
2023/10/04 09:38:39;;;;;;;4.38;1.50;;;;;;;16.98;43.05;102354.81;5035175;28;20045;-84
2023/10/04 09:41:10;;;;;;;5.22;2.30;;;;;;;16.99;42.88;102348.25;5053622;28;20049;-85
2023/10/04 09:43:40;;;;;;;6.68;2.10;;;;;;;17.05;43.30;102355.13;5044567;28;20076;-84
2023/10/04 09:46:11;;;;;;;4.53;1.67;;;;;;;17.08;42.92;102356.72;5044988;28;20079;-84
2023/10/04 09:48:43;;;;;;;4.30;1.73;;;;;;;17.10;43.23;102352.81;5065599;28;20052;-84
2023/10/04 09:51:13;;;;;;;4.95;1.90;;;;;;;17.11;43.08;102353.69;5037439;28;20049;-85
2023/10/04 09:53:43;;;;;;;6.50;2.00;;;;;;;17.18;43.24;102360.41;5035236;28;20053;-85
2023/10/04 09:56:13;;;;;;;6.40;1.90;;;;;;;17.18;42.82;102354.88;5033859;28;20060;-85
2023/10/04 09:58:49;;;;;;;5.75;1.85;;;;;;;17.22;42.53;102346.16;5053195;28;20053;-85
2023/10/04 10:01:22;;;;;;;4.90;1.38;;;;;;;17.23;42.53;102347.03;5033070;28;20053;-84
2023/10/04 10:03:56;;;;;;;6.20;1.80;;;;;;;17.29;42.77;102349.22;5035295;28;20055;-84
2023/10/04 10:06:32;;;;;;;5.28;1.60;;;;;;;17.31;42.49;102350.84;5046815;28;20053;-84
2023/10/04 10:09:08;;;;;;;6.70;1.98;;;;;;;17.35;42.40;102351.41;5032174;28;20083;-85
2023/10/04 10:11:37;;;;;;;7.22;1.95;;;;;;;17.36;42.71;102350.41;5026388;28;20064;-83
2023/10/04 10:14:09;;;;;;;3.60;1.60;;;;;;;17.40;42.34;102349.94;5049479;28;20049;-84
2023/10/04 10:16:40;;;;;;;5.05;1.88;;;;;;;17.42;42.00;102351.72;5036030;28;20862;-84
2023/10/04 10:19:08;;;;;;;6.20;1.95;;;;;;;17.43;42.04;102334.97;5038295;28;20485;-84
2023/10/04 10:22:05;;;;;;;5.65;1.88;;;;;;;17.46;41.32;102342.13;5043918;28;20046;-84
2023/10/04 10:24:44;;;;;;;6.43;2.35;;;;;;;17.49;41.83;102342.69;5051190;28;20057;-85
2023/10/04 10:27:20;;;;;;;4.93;1.70;;;;;;;17.50;41.45;102338.91;5032421;28;20057;-84
2023/10/04 10:29:48;;;;;;;5.65;2.15;;;;;;;17.50;41.78;102335.25;5038956;28;20079;-84
2023/10/04 10:32:20;;;;;;;5.30;1.88;;;;;;;17.53;41.84;102322.03;5034119;28;20049;-84
2023/10/04 10:34:49;;;;;;;5.33;1.77;;;;;;;17.54;41.56;102331.19;5038161;28;20053;-84
2023/10/04 10:37:19;;;;;;;5.32;1.60;;;;;;;17.59;41.56;102320.56;5034663;28;20584;-84
2023/10/04 10:39:50;;;;;;;5.72;1.92;;;;;;;17.61;41.12;102322.16;5055001;28;20130;-85
2023/10/04 10:42:19;;;;;;;3.10;1.40;;;;;;;17.61;41.50;102321.28;5034082;28;20565;-83
2023/10/04 10:44:50;;;;;;;6.13;1.67;;;;;;;17.63;41.59;102325.66;5032081;28;20056;-83
2023/10/04 10:47:22;;;;;;;5.63;2.05;;;;;;;17.67;40.83;102318.81;5034154;28;20058;-83
2023/10/04 10:49:52;;;;;;;4.30;1.77;;;;;;;17.68;41.20;102315.03;5032006;28;20406;-86
2023/10/04 10:52:26;;;;;;;4.35;1.63;;;;;;;17.74;40.63;102313.59;5031720;28;20912;-83
2023/10/04 10:54:57;;;;;;;5.55;2.03;;;;;;;17.75;40.81;102307.91;5038318;28;20056;-83
2023/10/04 10:57:28;;;;;;;4.85;1.83;;;;;;;17.77;40.63;102307.78;5035750;28;20089;-84
2023/10/04 10:59:57;;;;;;;6.47;1.80;;;;;;;17.80;41.21;102314.91;5055860;28;20427;-84
2023/10/04 11:02:27;;;;;;;5.03;2.00;;;;;;;17.81;40.52;102312.00;5037981;28;20510;-84
2023/10/04 11:04:56;;;;;;;5.45;1.73;;;;;;;17.84;40.31;102316.34;5037795;28;20048;-84
2023/10/04 11:07:26;;;;;;;5.43;1.80;;;;;;;17.86;40.35;102317.97;5039116;28;20048;-84
2023/10/04 11:09:58;;;;;;;3.80;1.65;;;;;;;17.91;40.13;102315.63;5035050;28;20047;-84
2023/10/04 11:12:27;;;;;;;5.60;2.08;;;;;;;17.90;40.35;102324.06;5032722;28;20053;-84
2023/10/04 11:14:56;;;;;;;4.65;1.90;;;;;;;17.91;39.97;102310.09;5034181;28;20053;-84
2023/10/04 11:17:24;;;;;;;5.60;1.75;;;;;;;17.95;40.09;102318.97;5031968;28;20053;-84
2023/10/04 11:19:52;;;;;;;5.97;2.20;;;;;;;17.96;39.93;102320.75;5035440;28;20115;-83
2023/10/04 11:22:20;;;;;;;4.55;2.20;;;;;;;17.96;39.52;102321.63;5053848;28;20049;-84
2023/10/04 11:24:50;;;;;;;5.82;2.50;;;;;;;17.97;39.52;102320.59;5035462;28;20041;-85
2023/10/04 11:27:22;;;;;;;4.85;2.08;;;;;;;17.97;39.32;102317.81;5051145;28;20071;-84
2023/10/04 11:29:52;;;;;;;7.40;2.63;;;;;;;17.95;40.00;102321.75;5044632;28;20057;-84
2023/10/04 11:32:21;;;;;;;5.55;2.40;;;;;;;17.98;39.83;102325.09;5063927;28;20057;-83
2023/10/04 11:34:50;;;;;;;4.68;2.20;;;;;;;17.99;39.67;102323.19;5034230;28;20402;-84
2023/10/04 11:37:18;;;;;;;5.20;2.10;;;;;;;17.98;39.89;102321.44;5040778;28;20068;-84
2023/10/04 11:39:46;;;;;;;5.78;2.17;;;;;;;17.98;39.55;102313.13;5033270;28;20052;-84
2023/10/04 11:42:22;;;;;;;4.15;2.10;;;;;;;18.00;39.39;102305.56;5035858;28;20136;-84
2023/10/04 11:44:50;;;;;;;4.65;1.92;;;;;;;17.97;39.48;102305.88;5034748;28;20655;-84
2023/10/04 11:47:31;;;;;;;5.03;1.90;;;;;;;17.98;39.07;102297.38;5032164;28;20122;-84